AirNav   Air Wisconsin Up To $57,000 Bonus
 
 934 users online  

6IS5 Presence Holy Family Medical Center Heliport
Des Plaines, Illinois, USA

GOING TO DES PLAINES?


FAA INFORMATION EFFECTIVE 31 DECEMBER 2020

Location

FAA Identifier: 6IS5
Lat/Long: 42-03-18.1020N 087-53-29.2390W
42-03.301700N 087-53.487317W
42.0550283,-87.8914553
(estimated)
Elevation: 650 ft. / 198 m (estimated)
Variation: 01W (1985)
From city: 2 miles N of DES PLAINES, IL
Time zone: UTC -6 (UTC -5 during Daylight Saving Time)
Zip code: 60016

Heliport Operations

Heliport use: Private use, MEDICAL USE.
Activation date: 03/1985
Control tower: no
ARTCC: CHICAGO CENTER
FSS: KANKAKEE FLIGHT SERVICE STATION
Attendance: UNATNDD
Segmented circle: no

Heliport Communications

WX ASOS at PWK (4 nm N): PHONE 847-465-0291
WX ASOS at ORD (5 nm S): PHONE 773-462-0118
WX AWOS-3 at 06C (10 nm SW): 128.275 ((847) 895-2887)
WX ASOS at MDW (17 nm S): PHONE 773-884-4424
WX ASOS at DPA (18 nm SW): PHONE 630-587-3668

Nearby radio navigation aids

VOR radial/distance  VOR name  Freq  Var
OBKr167/10.3NORTHBROOK VOR/DME113.0002W
DPAr062/22.7DUPAGE VOR/DME108.4002E
CGTr334/35.7CHICAGO HEIGHTS VORTAC114.2002E
JOTr030/36.0JOLIET VOR/DME112.3002E

Heliport Services

Runway Information

Helipad H1

Dimensions: 40 x 40 ft. / 12 x 12 m
Surface: concrete
Runway edge lights: PERI
Latitude: 42-03.301700N
Longitude: 087-53.487317W
Elevation: 650.0 ft.
Traffic pattern: leftleft

Heliport Ownership and Management from official FAA records

Ownership: Privately-owned
Owner: PRESENCE HOLY FAMILY MEDICAL CENTER
100 NORTH RIVER ROAD
DES PLAINES, IL 60016
Phone 847-297-1800
Manager: DAVID SELF
100 NORTH RIVER ROAD
DES PLAINES, IL 60016
Phone 847-813-3884

Additional Remarks

A52-H1 WATER TWR LGTD & MKD; HOSP LGTD; & PLINE.
FOR CD CTC CHICAGO APCH AT 847-289-0926.

Instrument Procedures

There are no published instrument procedures at 6IS5.

Some nearby airports with instrument procedures:

KPWK - Chicago Exec Airport (4 nm N)
KORD - Chicago O'Hare International Airport (5 nm S)
KMDW - Chicago Midway International Airport (17 nm S)
C81 - Campbell Airport (18 nm NW)
KDPA - DuPage Airport (18 nm SW)
 
Loc | Ops | Rwys | IFR | FBO | Links
Com | Nav | Svcs | Stats | Notes
Area around 6IS5 (Presence Holy Family Medical Center Heliport)
 
Road maps at: MapQuest Bing Google
 
Aerial photo
No photo
 
Sectional chart

 
Airport distance calculator
Flying to Presence Holy Family Medical Center Heliport? Find the distance to fly.

From to 6IS5

Sunrise and sunset
Times for 27-Jan-2021
 Local
(UTC-6)
 Zulu
(UTC)
Morning civil twilight06:4012:40
Sunrise07:1013:10
Sunset16:5922:59
Evening civil twilight17:2923:29

Current date and time
Zulu (UTC)  27-Jan-2021 13:43:38
Local (UTC-6)  27-Jan-2021 07:43:38
 
METAR
KPWK 
4nm N 
271252Z 34007KT 10SM BKN030 M07/M11 A3032 RMK AO2 SLP278 T10671106
KORD 
5nm SW 
271251Z 35010KT 10SM FEW012 BKN030 BKN230 M07/M10 A3030 RMK AO2 SLP269 T10671100 $
K06C 
10nm SW 
271315Z AUTO 36006KT 10SM BKN027 M08/M11 A3031 RMK AO2 T10771109
KMDW 
17nm S 
271253Z 36012KT 10SM OVC012 M04/M08 A3030 RMK AO2 SLP274 T10391078 $
KDPA 
18nm SW 
271252Z 35008KT 10SM OVC029 M09/M12 A3030 RMK AO2 SLP273 T10891122
TAF
KORD 
5nm SW 
271125Z 2712/2818 01012KT P6SM SCT025 BKN035 FM271400 01012KT P6SM BKN020 TEMPO 2716/2718 5SM -SHSN BKN015 FM271800 36012KT P6SM SCT020 BKN030 FM272100 34009KT P6SM SCT035
KMDW 
17nm S 
271125Z 2712/2818 02012KT P6SM BKN030 FM271500 02012KT 5SM -SHSN BKN020 TEMPO 2716/2719 1 1/2SM -SHSN OVC010 FM272100 36012KT P6SM SCT020 BKN030 FM272300 34009KT P6SM SCT035
KDPA 
18nm SW 
271125Z 2712/2812 36011KT P6SM SCT030 BKN035 FM272100 34009KT P6SM SCT035
NOTAMs
Click for the latest NOTAMs
NOTAMs are issued by the DoD/FAA and will open in a separate window not controlled by AirNav.

 

 
 

Would you like to see your business listed on this page?

 If your business provides an interesting product or service to pilots, flight crews, aircraft, or users of the Presence Holy Family Medical Center Heliport, you should consider listing it here.  To start the listing process, click on the button below
 
Add a business
 

Other Pages about Presence Holy Family Medical Center Heliport

Update a link
 
Copyright © AirNav, LLC. All rights reserved. Privacy Policy  Contact